createdAt,value
2018-09-12T00:01:01.319Z,71.65
2018-09-12T00:01:46.681Z,71.55
2018-09-12T00:02:46.705Z,71.17
2018-09-12T00:03:46.471Z,71.08
2018-09-12T00:04:46.753Z,71.26
2018-09-12T00:05:46.523Z,71.55
2018-09-12T00:06:46.801Z,71.55
2018-09-12T00:07:46.829Z,71.55
2018-09-12T00:08:46.852Z,71.26
2018-09-12T00:09:46.615Z,70.88
2018-09-12T00:10:46.902Z,71.08
2018-09-12T00:11:46.922Z,70.88
2018-09-12T00:12:46.945Z,71.26
2018-09-12T00:13:46.969Z,71.36
2018-09-12T00:14:46.736Z,71.55
2018-09-12T00:15:47.017Z,71.55
2018-09-12T00:17:01.701Z,72.03
2018-09-12T00:17:47.070Z,72.23
2018-09-12T00:18:46.832Z,72.52
2018-09-12T00:19:47.113Z,71.94
2018-09-12T00:20:47.138Z,72.32
2018-09-12T00:21:47.165Z,72.23
2018-09-12T00:22:47.184Z,72.48
2018-09-12T00:23:47.210Z,73.67
2018-09-12T00:24:47.237Z,73.54
2018-09-12T00:25:47.255Z,73.92
2018-09-12T00:26:47.280Z,73.92
2018-09-12T00:27:47.310Z,74.02
2018-09-12T00:28:47.332Z,74.11
2018-09-12T00:29:47.351Z,74.4
2018-09-12T00:30:47.376Z,74.02
2018-09-12T00:31:47.403Z,74.11
2018-09-12T00:33:02.084Z,74.69
2018-09-12T00:33:47.448Z,74.88
2018-09-12T00:34:47.470Z,74.5
2018-09-12T00:35:47.497Z,74.75
2018-09-12T00:36:47.261Z,74.79
2018-09-12T00:37:47.545Z,75.32
2018-09-12T00:38:47.310Z,75.32
2018-09-12T00:39:47.590Z,75.04
2018-09-12T00:40:47.621Z,75.71
2018-09-12T00:41:47.638Z,75.32
2018-09-12T00:42:47.662Z,75.71
2018-09-12T00:43:47.686Z,75.81
2018-09-12T00:44:47.724Z,76
2018-09-12T00:45:47.745Z,75.62
2018-09-12T00:46:47.757Z,75.71
2018-09-12T00:48:02.443Z,76
2018-09-12T00:48:47.807Z,76
2018-09-12T00:49:47.830Z,76.09
2018-09-12T00:50:47.856Z,76
2018-09-12T00:51:47.877Z,75.9
2018-09-12T00:52:47.906Z,75.71
2018-09-12T00:53:47.927Z,76.67
2018-09-12T00:54:47.962Z,76.86
2018-09-12T00:56:47.995Z,77.78
2018-09-12T00:57:48.019Z,77.21
2018-09-12T00:58:48.044Z,77.01
2018-09-12T00:59:48.081Z,77.11
2018-09-12T01:00:48.089Z,77.11
2018-09-12T01:01:48.212Z,77.78
2018-09-12T01:02:48.138Z,78.36
2018-09-12T01:03:47.904Z,77.5
2018-09-12T01:04:48.186Z,77.69
2018-09-12T01:05:48.209Z,76.64
2018-09-12T01:07:48.255Z,77.11
2018-09-12T01:08:48.278Z,76.82
2018-09-12T01:09:48.307Z,76.64
2018-09-12T01:10:48.331Z,76.92
2018-09-12T01:11:48.347Z,76.82
2018-09-12T01:12:48.380Z,76.15
2018-09-12T01:13:48.398Z,76.54
2018-09-12T01:14:48.421Z,76.92
2018-09-12T01:15:48.454Z,76.73
2018-09-12T01:16:48.212Z,76.73
2018-09-12T01:17:48.492Z,76.92
2018-09-12T01:18:48.516Z,76.54
2018-09-12T01:20:03.200Z,75.87
2018-09-12T01:20:48.566Z,75.87
2018-09-12T01:21:48.586Z,75.67
2018-09-12T01:22:48.609Z,75.96
2018-09-12T01:23:48.643Z,75.57
2018-09-12T01:24:48.665Z,75.67
2018-09-12T01:25:48.424Z,76.06
2018-09-12T01:26:48.702Z,75.67
2018-09-12T01:30:48.798Z,75.67
2018-09-12T01:31:48.823Z,75.87
2018-09-12T01:32:48.846Z,75.81
2018-09-12T01:33:48.868Z,76.44
2018-09-12T01:34:48.891Z,76.44
2018-09-12T01:36:03.591Z,75.87
2018-09-12T01:36:48.944Z,76.06
2018-09-12T01:37:48.961Z,75.96
2018-09-12T01:38:48.994Z,75.77
2018-09-12T01:39:49.014Z,75.57
2018-09-12T01:40:49.033Z,75.87
2018-09-12T01:41:49.059Z,75.67
2018-09-12T01:42:48.824Z,75.77
2018-09-12T01:45:49.153Z,76.82
2018-09-12T01:46:49.178Z,76.64
2018-09-12T01:47:48.943Z,77.11
2018-09-12T01:48:49.221Z,77.59
2018-09-12T01:49:49.247Z,77.69
2018-09-12T01:50:49.271Z,77.4
2018-09-12T01:52:03.955Z,78.84
2018-09-12T01:52:49.319Z,79.42
2018-09-12T01:53:49.338Z,78.9
2018-09-12T01:54:49.366Z,78.32
2018-09-12T01:55:49.392Z,78.55
2018-09-12T01:56:49.414Z,78.23
2018-09-12T01:57:49.440Z,78.42
2018-09-12T01:58:54.162Z,78.7
2018-09-12T01:59:49.533Z,78.03
2018-09-12T02:00:49.509Z,77.59
2018-09-12T02:02:49.556Z,77.78
2018-09-12T02:03:49.576Z,77.46
2018-09-12T02:04:49.601Z,77.88
2018-09-12T02:05:49.629Z,77.84
2018-09-12T02:06:49.645Z,78.32
2018-09-12T02:08:04.331Z,78.42
2018-09-12T02:08:49.693Z,78.42
2018-09-12T02:09:49.717Z,78.52
2018-09-12T02:10:49.486Z,78.13
2018-09-12T02:11:49.506Z,78.23
2018-09-12T02:12:49.532Z,78.23
2018-09-12T02:13:49.811Z,77.75
2018-09-12T02:14:49.836Z,77.98
2018-09-12T02:15:49.856Z,78.03
2018-09-12T02:16:49.886Z,77.46
2018-09-12T02:17:49.904Z,77.88
2018-09-12T02:18:49.930Z,77.46
2018-09-12T02:19:49.951Z,77.65
2018-09-12T02:20:49.975Z,77.65
2018-09-12T02:21:49.997Z,77.75
2018-09-12T02:23:04.682Z,77.46
2018-09-12T02:23:50.060Z,78.03
2018-09-12T02:24:49.820Z,78.13
2018-09-12T02:25:50.092Z,78.23
2018-09-12T02:26:50.123Z,78.61
2018-09-12T02:27:50.141Z,78.61
2018-09-12T02:28:49.903Z,78.42
2018-09-12T02:29:50.201Z,78.61
2018-09-12T02:30:50.208Z,78.8
2018-09-12T02:31:50.236Z,79.19
2018-09-12T02:32:50.256Z,78.7
2018-09-12T02:33:50.283Z,78.52
2018-09-12T02:34:50.309Z,78.13
2018-09-12T02:35:50.327Z,78.42
2018-09-12T02:36:50.090Z,77.84
2018-09-12T02:37:50.383Z,78.23
2018-09-12T02:38:50.397Z,78.03
2018-09-12T02:39:50.423Z,78.52
2018-09-12T02:40:50.448Z,78.42
2018-09-12T02:41:50.466Z,78.32
2018-09-12T02:42:50.489Z,78.7
2018-09-12T02:43:50.257Z,78.61
2018-09-12T02:44:50.538Z,79.28
2018-09-12T02:46:50.689Z,79.28
2018-09-12T02:47:50.608Z,79.28
2018-09-12T02:48:50.634Z,79.28
2018-09-12T02:49:50.653Z,78.9
2018-09-12T02:50:50.676Z,78.9
2018-09-12T02:51:50.700Z,79.57
2018-09-12T02:52:50.758Z,79.57
2018-09-12T02:53:50.846Z,79.47
2018-09-12T02:55:05.431Z,80.05
2018-09-12T02:55:50.792Z,80.05
2018-09-12T02:56:50.817Z,80.15
2018-09-12T02:57:50.840Z,80.2
2018-09-12T02:58:50.863Z,80.01
2018-09-12T02:59:50.886Z,79.57
2018-09-12T03:00:50.911Z,79.67
2018-09-12T03:01:50.931Z,80.05
2018-09-12T03:02:50.957Z,80.05
2018-09-12T03:03:50.985Z,80.01
2018-09-12T03:04:51.006Z,79.82
2018-09-12T03:05:51.025Z,80.01
2018-09-12T03:06:50.790Z,80.01
2018-09-12T03:07:51.209Z,79.96
2018-09-12T03:08:51.093Z,80.01
2018-09-12T03:09:51.118Z,80.01
2018-09-12T03:11:05.803Z,80.2
2018-09-12T03:11:51.169Z,80.49
2018-09-12T03:12:51.187Z,80.78
2018-09-12T03:13:51.211Z,80.78
2018-09-12T03:14:51.235Z,80.58
2018-09-12T03:15:51.267Z,80.49
2018-09-12T03:16:51.281Z,80.58
2018-09-12T03:17:51.319Z,80.58
2018-09-12T03:18:51.329Z,80.49
2018-09-12T03:19:51.352Z,80.2
2018-09-12T03:20:51.893Z,80.11
2018-09-12T03:21:51.395Z,80.58
2018-09-12T03:22:51.166Z,80.68
2018-09-12T03:23:51.446Z,80.3
2018-09-12T03:24:51.208Z,80.49
2018-09-12T03:25:51.235Z,79.53
2018-09-12T03:27:06.172Z,80.11
2018-09-12T03:27:51.544Z,79.91
2018-09-12T03:28:51.562Z,79.82
2018-09-12T03:29:51.623Z,80.01
2018-09-12T03:30:51.626Z,80.2
2018-09-12T03:31:51.650Z,80.01
2018-09-12T03:32:51.654Z,80.4
2018-09-12T03:33:51.674Z,80.49
2018-09-12T03:34:51.699Z,80.49
2018-09-12T03:35:51.724Z,80.49
2018-09-12T03:37:51.768Z,80.97
2018-09-12T03:38:51.792Z,81.26
2018-09-12T03:39:51.817Z,81.26
2018-09-12T03:40:51.837Z,81.35
2018-09-12T03:41:51.860Z,81.35
2018-09-12T03:43:06.646Z,81.64
2018-09-12T03:43:51.910Z,81.45
2018-09-12T03:44:51.930Z,82.31
2018-09-12T03:45:51.951Z,82.46
2018-09-12T03:46:51.718Z,83.14
2018-09-12T03:47:52.074Z,83.04
2018-09-12T03:48:51.765Z,82.94
2018-09-12T03:49:51.788Z,83.33
2018-09-12T03:50:52.069Z,84.19
2018-09-12T03:51:52.092Z,84
2018-09-12T03:52:52.112Z,83.71
2018-09-12T03:53:52.139Z,83.81
2018-09-12T03:54:52.162Z,83.61
2018-09-12T03:55:52.184Z,84.28
2018-09-12T03:56:52.210Z,84.38
2018-09-12T03:58:06.892Z,84.38
2018-09-12T03:58:52.254Z,84.09
2018-09-12T03:59:52.278Z,83.81
2018-09-12T04:00:52.308Z,84
2018-09-12T04:01:52.321Z,83.81
2018-09-12T04:02:52.455Z,83.71
2018-09-12T04:03:52.371Z,83.71
2018-09-12T04:04:52.412Z,83.71
2018-09-12T04:05:52.425Z,83.52
2018-09-12T04:06:52.439Z,83.23
2018-09-12T04:08:52.485Z,83.04
2018-09-12T04:09:52.509Z,83.04
2018-09-12T04:10:52.544Z,83.33
2018-09-12T04:11:52.562Z,83.33
2018-09-12T04:12:52.320Z,82.85
2018-09-12T04:13:52.343Z,82.75
2018-09-12T04:14:52.364Z,82.94
2018-09-12T04:15:52.647Z,82.94
2018-09-12T04:16:52.744Z,83.04
2018-09-12T04:17:52.688Z,82.94
2018-09-12T04:18:52.713Z,82.85
2018-09-12T04:20:52.768Z,83.14
2018-09-12T04:21:52.783Z,83.04
2018-09-12T04:22:52.812Z,82.94
2018-09-12T04:23:52.838Z,83.14
2018-09-12T04:24:52.853Z,82.85
2018-09-12T04:25:52.879Z,83.04
2018-09-12T04:26:52.642Z,83.33
2018-09-12T04:27:52.924Z,82.75
2018-09-12T04:28:52.944Z,82.85
2018-09-12T04:30:07.636Z,83.42
2018-09-12T04:30:52.732Z,83.52
2018-09-12T04:31:53.014Z,83.52
2018-09-12T04:32:53.037Z,83.23
2018-09-12T04:33:53.061Z,83.33
2018-09-12T04:35:53.103Z,83.71
2018-09-12T04:36:52.869Z,83.52
2018-09-12T04:38:53.178Z,83.33
2018-09-12T04:39:53.201Z,83.33
2018-09-12T04:40:53.236Z,83.42
2018-09-12T04:41:53.248Z,83.52
2018-09-12T04:42:53.520Z,83.52
2018-09-12T04:43:53.289Z,82.94
2018-09-12T04:44:53.310Z,83.23
2018-09-12T04:46:07.995Z,82.75
2018-09-12T04:46:53.100Z,83.33
2018-09-12T04:47:53.384Z,83.81
2018-09-12T04:48:53.410Z,83.91
2018-09-12T04:49:53.428Z,83.33
2018-09-12T04:50:53.451Z,83.52
2018-09-12T04:51:53.215Z,83.61
2018-09-12T04:52:53.504Z,83.04
2018-09-12T04:53:53.532Z,83.42
2018-09-12T04:54:53.550Z,83.71
2018-09-12T04:55:53.566Z,83.71
2018-09-12T04:56:53.597Z,83.52
2018-09-12T04:57:53.611Z,83.42
2018-09-12T04:58:53.633Z,83.52
2018-09-12T04:59:53.859Z,83.71
2018-09-12T05:00:53.679Z,83.52
2018-09-12T05:02:08.369Z,83.71
2018-09-12T05:02:53.728Z,83.61
2018-09-12T05:03:53.748Z,83.04
2018-09-12T05:04:53.772Z,82.85
2018-09-12T05:05:53.792Z,83.04
2018-09-12T05:06:53.815Z,82.94
2018-09-12T05:07:53.840Z,82.94
2018-09-12T05:08:53.605Z,82.56
2018-09-12T05:09:53.890Z,82.37
2018-09-12T05:10:53.909Z,82.12
2018-09-12T05:11:53.932Z,81.93
2018-09-12T05:12:53.955Z,82.51
2018-09-12T05:13:53.719Z,82.41
2018-09-12T05:14:53.741Z,82.03
2018-09-12T05:15:53.806Z,82.03
2018-09-12T05:16:54.050Z,82.03
2018-09-12T05:18:08.729Z,81.35
2018-09-12T05:18:54.092Z,81.93
2018-09-12T05:19:54.114Z,81.54
2018-09-12T05:20:54.138Z,81.54
2018-09-12T05:21:54.168Z,81.64
2018-09-12T05:22:54.186Z,81.93
2018-09-12T05:23:54.207Z,80.87
2018-09-12T05:24:54.230Z,80.78
2018-09-12T05:25:54.253Z,80.49
2018-09-12T05:26:54.020Z,80.01
2018-09-12T05:27:54.303Z,80.4
2018-09-12T05:28:54.325Z,80.01
2018-09-12T05:29:54.347Z,80.11
2018-09-12T05:30:54.373Z,79.67
2018-09-12T05:31:54.139Z,79.44
2018-09-12T05:33:09.186Z,79.96
2018-09-12T05:33:54.439Z,78.99
2018-09-12T05:34:54.463Z,78.9
2018-09-12T05:35:54.496Z,78.7
2018-09-12T05:36:54.510Z,78.99
2018-09-12T05:37:54.532Z,78.7
2018-09-12T05:38:54.555Z,78.42
2018-09-12T05:39:54.579Z,78.52
2018-09-12T05:40:54.345Z,78.52
2018-09-12T05:41:54.370Z,78.84
2018-09-12T05:42:54.650Z,78.42
2018-09-12T05:43:54.672Z,78.32
2018-09-12T05:44:54.695Z,78.52
2018-09-12T05:45:54.718Z,78.36
2018-09-12T05:46:54.741Z,78.55
2018-09-12T05:47:54.763Z,78.08
2018-09-12T05:48:54.796Z,77.69
2018-09-12T05:49:54.817Z,76.86
2018-09-12T05:51:54.863Z,74.15
2018-09-12T05:54:54.940Z,69.7
2018-09-12T05:55:54.955Z,68.32
2018-09-12T05:56:54.981Z,68.42
2018-09-12T05:57:55.024Z,66.69
2018-09-12T05:58:55.033Z,66.2
2018-09-12T05:59:55.063Z,65.37
2018-09-12T06:00:55.086Z,64.05
2018-09-12T06:01:55.115Z,62.73
2018-09-12T06:02:55.142Z,62.28
2018-09-12T06:03:55.174Z,61.6
2018-09-12T06:05:09.909Z,60.57
2018-09-12T06:05:55.226Z,59.92
2018-09-12T06:07:55.282Z,59.05
2018-09-12T06:08:55.312Z,58.8
2018-09-12T06:09:55.343Z,58.02
2018-09-12T06:10:55.117Z,57.82
2018-09-12T06:13:55.626Z,55.56
2018-09-12T06:15:55.520Z,54.81
2018-09-12T06:16:55.561Z,54.52
2018-09-12T06:17:55.599Z,54.26
2018-09-12T06:18:55.636Z,53.97
2018-09-12T06:19:55.393Z,53.67
2018-09-12T06:21:10.345Z,53.75
2018-09-12T06:21:55.722Z,52.93
2018-09-12T06:22:55.750Z,52.93
2018-09-12T06:23:55.791Z,53.12
2018-09-12T06:24:55.555Z,52.15
2018-09-12T06:25:55.844Z,51.89
2018-09-12T06:26:55.723Z,51.4
2018-09-12T06:27:55.919Z,50.74
2018-09-12T06:28:55.943Z,50.65
2018-09-12T06:29:55.980Z,50.65
2018-09-12T06:30:56.092Z,50.56
2018-09-12T06:32:56.088Z,50.68
2018-09-12T06:33:56.110Z,49.41
2018-09-12T06:34:56.150Z,48.85
2018-09-12T06:35:56.179Z,48.85
2018-09-12T06:37:10.878Z,48.18
2018-09-12T06:37:56.331Z,48.3
2018-09-12T06:38:56.281Z,47.71
2018-09-12T06:39:56.060Z,47.44
2018-09-12T06:40:56.357Z,47.05
2018-09-12T06:41:56.386Z,46.59
2018-09-12T06:42:56.422Z,46.5
2018-09-12T06:43:56.456Z,46.59
2018-09-12T06:44:56.499Z,46.59
2018-09-12T06:45:56.526Z,46.3
2018-09-12T06:46:56.559Z,46.01
2018-09-12T06:47:56.594Z,45.52
2018-09-12T06:48:56.637Z,45.25
2018-09-12T06:49:56.663Z,45.45
2018-09-12T06:50:56.700Z,44.4
2018-09-12T06:51:56.734Z,44.69
2018-09-12T06:53:11.438Z,44.49
2018-09-12T06:53:56.549Z,43.93
2018-09-12T06:54:56.846Z,43.74
2018-09-12T06:55:56.883Z,43.64
2018-09-12T06:56:56.658Z,44.13
2018-09-12T06:57:56.950Z,43.37
2018-09-12T06:58:56.984Z,43.66
2018-09-12T06:59:56.765Z,43.37
2018-09-12T07:00:57.139Z,42.69
2018-09-12T07:01:57.102Z,42.61
2018-09-12T07:02:56.870Z,42.51
2018-09-12T07:03:57.162Z,43.1
2018-09-12T07:04:57.199Z,42.49
2018-09-12T07:05:57.235Z,42.49
2018-09-12T07:06:57.273Z,42.4
2018-09-12T07:08:11.973Z,42.1
2018-09-12T07:08:57.346Z,42.51
2018-09-12T07:09:57.379Z,43.08
2018-09-12T07:10:57.417Z,42.9
2018-09-12T07:11:57.455Z,42.32
2018-09-12T07:12:57.490Z,42.71
2018-09-12T07:14:57.570Z,42.14
2018-09-12T07:15:57.604Z,42.34
2018-09-12T07:16:57.642Z,42.44
2018-09-12T07:17:57.672Z,42.05
2018-09-12T07:18:57.456Z,42.69
2018-09-12T07:19:57.744Z,41.44
2018-09-12T07:20:57.784Z,41.75
2018-09-12T07:21:57.815Z,42.93
2018-09-12T07:22:57.850Z,42.51
2018-09-12T07:23:57.894Z,41.35
2018-09-12T07:24:57.926Z,42.02
2018-09-12T07:25:57.966Z,41.83
2018-09-12T07:26:57.999Z,41.93
2018-09-12T07:27:58.030Z,41.95
2018-09-12T07:29:58.106Z,41.56
2018-09-12T07:30:58.142Z,41.17
2018-09-12T07:32:58.213Z,40.89
2018-09-12T07:33:58.259Z,40.31
2018-09-12T07:34:58.031Z,40.89
2018-09-12T07:35:58.325Z,40.7
2018-09-12T07:36:58.362Z,40.89
2018-09-12T07:37:58.397Z,40.97
2018-09-12T07:38:58.434Z,40.88
2018-09-12T07:40:13.132Z,40.88
2018-09-12T07:40:58.505Z,41.17
2018-09-12T07:41:58.284Z,41.27
2018-09-12T07:42:58.575Z,41.35
2018-09-12T07:43:58.614Z,41.46
2018-09-12T07:44:58.387Z,40.97
2018-09-12T07:45:58.428Z,40.7
2018-09-12T07:46:58.719Z,40.14
2018-09-12T07:47:58.751Z,39.55
2018-09-12T07:48:58.875Z,40.43
2018-09-12T07:49:58.598Z,40.23
2018-09-12T07:50:58.864Z,39.94
2018-09-12T07:51:58.899Z,40.14
2018-09-12T07:52:58.935Z,39.76
2018-09-12T07:53:58.710Z,39.76
2018-09-12T07:54:58.745Z,39.57
2018-09-12T07:56:13.838Z,39.96
2018-09-12T07:56:59.076Z,39.86
2018-09-12T07:57:59.164Z,40.14
2018-09-12T07:58:58.891Z,40.25
2018-09-12T07:59:58.986Z,40.06
2018-09-12T08:00:59.216Z,40.27
2018-09-12T08:01:58.996Z,40.92
2018-09-12T08:02:59.287Z,40.63
2018-09-12T08:03:59.376Z,41.58
2018-09-12T08:04:59.140Z,42.26
2018-09-12T08:06:59.168Z,43
2018-09-12T08:07:59.464Z,43.68
2018-09-12T08:08:59.498Z,43.39
2018-09-12T08:09:59.532Z,43.51
2018-09-12T08:10:59.566Z,42.85
2018-09-12T08:12:14.323Z,42.55
2018-09-12T08:12:59.637Z,42.75
2018-09-12T08:13:59.669Z,42.87
2018-09-12T08:14:59.709Z,42.65
2018-09-12T08:15:59.742Z,43.04
2018-09-12T08:16:59.919Z,42.68
2018-09-12T08:17:59.819Z,43.16
2018-09-12T08:18:59.985Z,42.77
2018-09-12T08:19:59.905Z,42.97
2018-09-12T08:21:59.948Z,43.07
2018-09-12T08:22:59.982Z,43.33
2018-09-12T08:24:00.017Z,43.43
2018-09-12T08:25:00.052Z,43.82
2018-09-12T08:26:00.085Z,44.38
2018-09-12T08:27:00.122Z,44.78
2018-09-12T08:28:14.813Z,45.34
2018-09-12T08:29:00.249Z,45.81
2018-09-12T08:29:59.958Z,46.95
2018-09-12T08:31:00.257Z,47.05
2018-09-12T08:32:00.282Z,47.73
2018-09-12T08:33:00.314Z,47.63
2018-09-12T08:34:00.345Z,47.53
2018-09-12T08:35:00.119Z,47.42
2018-09-12T08:37:00.446Z,46.59
2018-09-12T08:38:00.486Z,46.69
2018-09-12T08:39:00.512Z,46.1
2018-09-12T08:40:00.538Z,46.59
2018-09-12T08:41:00.571Z,46.97
2018-09-12T08:42:00.635Z,47.25
2018-09-12T08:43:15.297Z,46.78
2018-09-12T08:44:00.409Z,46.51
2018-09-12T08:45:00.697Z,47.05
2018-09-12T08:46:00.471Z,46.95
2018-09-12T08:47:00.759Z,46.95
2018-09-12T08:48:00.794Z,46.69
2018-09-12T08:49:00.826Z,46.49
2018-09-12T08:50:00.854Z,46.2
2018-09-12T08:51:00.626Z,46.2
2018-09-12T08:54:00.977Z,44.29
2018-09-12T08:55:01.010Z,43.99
2018-09-12T08:56:01.044Z,43.9
2018-09-12T08:57:00.815Z,44.37
2018-09-12T08:58:01.107Z,44.46
2018-09-12T08:59:01.135Z,45.25
2018-09-12T09:00:01.166Z,45.05
2018-09-12T09:01:01.196Z,44.95
2018-09-12T09:02:00.971Z,45.15
2018-09-12T09:03:01.258Z,45.25
2018-09-12T09:04:01.049Z,44.37
2018-09-12T09:05:01.333Z,44.46
2018-09-12T09:06:01.349Z,44.38
2018-09-12T09:07:01.385Z,43.53
2018-09-12T09:08:01.164Z,43.43
2018-09-12T09:09:01.444Z,43.73
2018-09-12T09:10:01.474Z,43.33
2018-09-12T09:11:01.515Z,43.24
2018-09-12T09:12:01.283Z,43.53
2018-09-12T09:13:01.311Z,43.43
2018-09-12T09:14:01.602Z,43.43
2018-09-12T09:15:16.292Z,43.73
2018-09-12T09:16:01.664Z,43.71
2018-09-12T09:17:01.435Z,43.8
2018-09-12T09:18:01.725Z,43.73
2018-09-12T09:19:01.752Z,44.09
2018-09-12T09:20:01.790Z,44.19
2018-09-12T09:21:01.815Z,43.99
2018-09-12T09:22:01.849Z,43.07
2018-09-12T09:24:01.912Z,43.85
2018-09-12T09:25:01.937Z,43.53
2018-09-12T09:26:01.972Z,44.31
2018-09-12T09:27:02.005Z,44.48
2018-09-12T09:28:01.776Z,44.58
2018-09-12T09:29:02.067Z,44.56
2018-09-12T09:30:02.101Z,44.85
2018-09-12T09:31:16.790Z,45.54
2018-09-12T09:32:01.907Z,45.61
2018-09-12T09:33:01.931Z,45.51
2018-09-12T09:34:01.961Z,46.1
2018-09-12T09:35:02.537Z,45.71
2018-09-12T09:36:02.280Z,45.81
2018-09-12T09:37:02.053Z,45.44
2018-09-12T09:38:02.092Z,45.95
2018-09-12T09:40:02.406Z,46.31
2018-09-12T09:41:02.462Z,45.54
2018-09-12T09:42:02.466Z,45.56
2018-09-12T09:43:02.494Z,45.46
2018-09-12T09:44:02.631Z,44.63
2018-09-12T09:45:02.560Z,44.16
2018-09-12T09:46:02.586Z,42.42
2018-09-12T09:47:17.278Z,42.74
2018-09-12T09:48:02.906Z,43.69
2018-09-12T09:49:02.727Z,42.91
2018-09-12T09:50:02.709Z,41.39
2018-09-12T09:51:02.740Z,40.82
2018-09-12T09:52:02.775Z,40.64
2018-09-12T09:53:02.802Z,40.08
2018-09-12T09:54:02.834Z,41.13
2018-09-12T09:55:02.692Z,41.41
2018-09-12T09:56:02.896Z,41.8
2018-09-12T09:57:02.936Z,42.64
2018-09-12T09:58:02.968Z,42.83
2018-09-12T09:59:02.994Z,43.59
2018-09-12T10:00:03.022Z,44.06
2018-09-12T10:02:03.082Z,44.9
2018-09-12T10:03:17.777Z,44.8
2018-09-12T10:04:03.148Z,45.09
2018-09-12T10:05:03.176Z,45.65
2018-09-12T10:06:03.462Z,45.26
2018-09-12T10:07:03.236Z,45.46
2018-09-12T10:08:03.278Z,45.95
2018-09-12T10:09:03.297Z,46.63
2018-09-12T10:10:03.332Z,47
2018-09-12T10:11:03.358Z,46.9
2018-09-12T10:12:03.542Z,47
2018-09-12T10:13:03.431Z,46.24
2018-09-12T10:14:03.450Z,46.04
2018-09-12T10:15:03.479Z,45.87
2018-09-12T10:16:03.508Z,45.68
2018-09-12T10:17:03.593Z,44.92
2018-09-12T10:18:18.233Z,44.45
2018-09-12T10:19:03.602Z,44.55
2018-09-12T10:20:03.636Z,44.06
2018-09-12T10:21:03.661Z,44.84
2018-09-12T10:22:03.705Z,45.04
2018-09-12T10:23:03.719Z,45.21
2018-09-12T10:25:03.794Z,45.33
2018-09-12T10:26:03.814Z,46.11
2018-09-12T10:27:03.584Z,46.01
2018-09-12T10:28:03.872Z,45.62
2018-09-12T10:29:03.905Z,45.43
2018-09-12T10:30:03.676Z,45.23
2018-09-12T10:31:03.965Z,45.62
2018-09-12T10:32:03.737Z,45.55
2018-09-12T10:33:04.030Z,45.62
2018-09-12T10:34:04.055Z,45.92
2018-09-12T10:35:04.089Z,45.62
2018-09-12T10:36:04.116Z,45.92
2018-09-12T10:37:04.150Z,45.53
2018-09-12T10:38:03.917Z,44.67
2018-09-12T10:39:04.210Z,44.28
2018-09-12T10:40:04.245Z,44.28
2018-09-12T10:41:04.381Z,44.59
2018-09-12T10:42:04.040Z,45.94
2018-09-12T10:43:04.333Z,46.21
2018-09-12T10:44:04.360Z,45.92
2018-09-12T10:45:04.131Z,46.21
2018-09-12T10:46:04.419Z,45.92
2018-09-12T10:47:04.193Z,45.92
2018-09-12T10:48:04.220Z,45.92
2018-09-12T10:49:04.250Z,46.58
2018-09-12T10:50:19.202Z,46.21
2018-09-12T10:51:04.570Z,46
2018-09-12T10:52:04.342Z,45.61
2018-09-12T10:53:04.373Z,45.82
2018-09-12T10:54:04.403Z,46.31
2018-09-12T10:55:04.432Z,45.92
2018-09-12T10:56:04.719Z,46.78
2018-09-12T10:57:04.492Z,46.66
2018-09-12T10:59:04.567Z,46.95
2018-09-12T11:00:04.595Z,46.85
2018-09-12T11:01:04.617Z,46.68
2018-09-12T11:02:04.952Z,46.58
2018-09-12T11:03:04.671Z,46
2018-09-12T11:04:04.959Z,46.39
2018-09-12T11:05:04.733Z,46.75
2018-09-12T11:06:19.681Z,47.02
2018-09-12T11:07:05.048Z,46.73
2018-09-12T11:08:04.825Z,47.12
2018-09-12T11:09:05.115Z,47.24
2018-09-12T11:10:05.185Z,47.24
2018-09-12T11:11:05.167Z,46.48
2018-09-12T11:12:05.197Z,45.9
2018-09-12T11:13:04.970Z,46.78
2018-09-12T11:14:04.999Z,46.66
2018-09-12T11:15:05.347Z,47.12
2018-09-12T11:17:05.089Z,47.68
2018-09-12T11:18:05.123Z,47.58
2018-09-12T11:19:05.410Z,47.51
2018-09-12T11:20:05.436Z,47.58
2018-09-12T11:21:05.526Z,47.97
2018-09-12T11:22:20.155Z,47.97
2018-09-12T11:23:05.530Z,48.07
2018-09-12T11:24:05.459Z,47.97
2018-09-12T11:25:05.324Z,47.97
2018-09-12T11:26:05.610Z,47.78
2018-09-12T11:27:05.639Z,47.41
2018-09-12T11:28:05.675Z,47.8
2018-09-12T11:29:05.703Z,47.8
2018-09-12T11:31:05.759Z,47.41
2018-09-12T11:32:05.791Z,47.53
2018-09-12T11:33:05.825Z,46.78
2018-09-12T11:34:05.953Z,46.09
2018-09-12T11:35:05.875Z,46.39
2018-09-12T11:36:05.905Z,46.75
2018-09-12T11:37:05.937Z,47.61
2018-09-12T11:38:20.624Z,47.58
2018-09-12T11:39:05.999Z,47.78
2018-09-12T11:40:05.829Z,48.05
2018-09-12T11:41:05.793Z,47.95
2018-09-12T11:42:05.822Z,48.05
2018-09-12T11:43:06.108Z,47.97
2018-09-12T11:44:06.137Z,47.95
2018-09-12T11:45:06.167Z,47.95
2018-09-12T11:46:06.194Z,48.07
2018-09-12T11:47:06.226Z,48.14
2018-09-12T11:48:06.254Z,48.24
2018-09-12T11:49:06.413Z,48.24
2018-09-12T11:50:06.312Z,47.85
2018-09-12T11:51:06.340Z,47.97
2018-09-12T11:52:06.378Z,48.14
2018-09-12T11:53:21.063Z,47.49
2018-09-12T11:54:06.273Z,47.49
2018-09-12T11:55:06.460Z,46.8
2018-09-12T11:56:06.487Z,47.68
2018-09-12T11:57:06.516Z,47.29
2018-09-12T11:58:06.545Z,47.09
2018-09-12T11:59:06.315Z,47.31
2018-09-12T12:00:06.354Z,47.39
2018-09-12T12:01:06.373Z,47.29
2018-09-12T12:02:06.765Z,46.8
2018-09-12T12:03:06.689Z,47.22
2018-09-12T12:04:06.717Z,45.85
2018-09-12T12:05:06.788Z,45.15
2018-09-12T12:06:06.820Z,45.64
2018-09-12T12:07:06.803Z,44.97
2018-09-12T12:08:06.835Z,45.34
2018-09-12T12:09:06.861Z,45.73
2018-09-12T12:10:06.940Z,46.1
2018-09-12T12:11:06.919Z,46
2018-09-12T12:13:06.716Z,45.83
2018-09-12T12:14:07.004Z,45.92
2018-09-12T12:15:07.034Z,45.75
2018-09-12T12:16:07.061Z,45.15
2018-09-12T12:17:07.091Z,45.46
2018-09-12T12:18:07.120Z,44.78
2018-09-12T12:19:07.150Z,44.97
2018-09-12T12:20:06.972Z,44.38
2018-09-12T12:21:06.948Z,43.99
2018-09-12T12:22:07.243Z,44.31
2018-09-12T12:23:07.341Z,43.63
2018-09-12T12:24:07.291Z,43.53
2018-09-12T12:25:21.983Z,43.53
2018-09-12T12:26:07.351Z,43.43
2018-09-12T12:27:07.383Z,44.12
2018-09-12T12:28:07.464Z,43.92
2018-09-12T12:29:07.439Z,44.02
2018-09-12T12:30:07.471Z,43.14
2018-09-12T12:31:07.495Z,42.94
2018-09-12T12:32:07.528Z,43.24
2018-09-12T12:34:07.586Z,42.54
2018-09-12T12:35:07.353Z,42.75
2018-09-12T12:36:07.380Z,42.07
2018-09-12T12:37:07.670Z,41.27
2018-09-12T12:38:07.701Z,41.56
2018-09-12T12:39:07.465Z,42.14
2018-09-12T12:40:07.755Z,41.48
2018-09-12T12:41:22.593Z,40.41
2018-09-12T12:42:07.816Z,41.48
2018-09-12T12:43:07.851Z,41.36
2018-09-12T12:44:07.923Z,41.19
2018-09-12T12:45:07.898Z,41.48
2018-09-12T12:46:07.927Z,40.63
2018-09-12T12:47:07.955Z,39.67
2018-09-12T12:48:07.730Z,39.76
2018-09-12T12:49:08.064Z,40.16
2018-09-12T12:50:08.043Z,39.47
2018-09-12T12:51:08.069Z,39.67
2018-09-12T12:52:08.098Z,39.69
2018-09-12T12:53:08.128Z,40.25
2018-09-12T12:54:08.154Z,40.25
2018-09-12T12:55:08.187Z,39.39
2018-09-12T12:56:07.957Z,39.37
2018-09-12T12:57:22.905Z,39.86
2018-09-12T12:58:08.269Z,39.76
2018-09-12T12:59:08.304Z,39.67
2018-09-12T13:00:08.330Z,40.63
2018-09-12T13:01:08.364Z,40.43
2018-09-12T13:02:08.399Z,40.82
2018-09-12T13:03:08.429Z,40.63
2018-09-12T13:04:08.189Z,41.31
2018-09-12T13:05:08.473Z,41.97
2018-09-12T13:06:08.508Z,42.16
2018-09-12T13:07:08.532Z,41.77
2018-09-12T13:09:08.641Z,41.8
2018-09-12T13:10:08.412Z,42.19
2018-09-12T13:11:08.652Z,42.19
2018-09-12T13:12:08.677Z,41.8
2018-09-12T13:13:23.418Z,41.82
2018-09-12T13:14:08.480Z,41.6
2018-09-12T13:15:08.783Z,42.09
2018-09-12T13:16:08.790Z,42.94
2018-09-12T13:17:08.856Z,42.94
2018-09-12T13:18:08.851Z,41.89
2018-09-12T13:19:08.930Z,42.77
2018-09-12T13:20:08.909Z,42.58
2018-09-12T13:21:08.936Z,42.77
2018-09-12T13:23:09.007Z,42.55
2018-09-12T13:25:09.052Z,41.66
2018-09-12T13:26:09.085Z,43.14
2018-09-12T13:27:09.193Z,43.53
2018-09-12T13:28:23.803Z,44.78
2018-09-12T13:29:09.170Z,46.53
2018-09-12T13:30:08.939Z,47.61
2018-09-12T13:31:09.329Z,48.56
2018-09-12T13:32:09.255Z,49.34
2018-09-12T13:33:09.290Z,49.9
2018-09-12T13:34:09.390Z,51.04
2018-09-12T13:38:09.428Z,52.26
2018-09-12T13:39:09.456Z,52.26
2018-09-12T13:40:09.489Z,52.45
2018-09-12T13:41:09.575Z,52.26